sensor_id;sensor_type;location;lat;lon;timestamp;pressure;altitude;pressure_sealevel;temperature;humidity
54417;BME280;40326;51.220;7.250;2022-10-16T00:01:10;97979.88;;;13.24;100.00
54417;BME280;40326;51.220;7.250;2022-10-16T00:03:39;97981.28;;;13.28;100.00
54417;BME280;40326;51.220;7.250;2022-10-16T00:06:06;97984.06;;;13.25;100.00
54417;BME280;40326;51.220;7.250;2022-10-16T00:08:33;97980.59;;;13.39;100.00
54417;BME280;40326;51.220;7.250;2022-10-16T00:11:13;97987.88;;;13.32;100.00
54417;BME280;40326;51.220;7.250;2022-10-16T00:13:42;97994.75;;;13.45;100.00
54417;BME280;40326;51.220;7.250;2022-10-16T00:16:09;97991.78;;;13.51;100.00
54417;BME280;40326;51.220;7.250;2022-10-16T00:18:35;97991.38;;;13.31;100.00
54417;BME280;40326;51.220;7.250;2022-10-16T00:21:12;97993.03;;;13.32;100.00
54417;BME280;40326;51.220;7.250;2022-10-16T00:23:38;97999.81;;;13.33;100.00
54417;BME280;40326;51.220;7.250;2022-10-16T00:26:06;98012.88;;;13.43;100.00
54417;BME280;40326;51.220;7.250;2022-10-16T00:28:33;98014.72;;;13.54;100.00
54417;BME280;40326;51.220;7.250;2022-10-16T00:30:58;98009.97;;;13.48;100.00
54417;BME280;40326;51.220;7.250;2022-10-16T00:33:24;98017.50;;;13.51;100.00
54417;BME280;40326;51.220;7.250;2022-10-16T00:35:49;98028.19;;;13.57;100.00
54417;BME280;40326;51.220;7.250;2022-10-16T00:38:15;98021.09;;;13.61;100.00
54417;BME280;40326;51.220;7.250;2022-10-16T00:40:41;98016.34;;;13.55;100.00
54417;BME280;40326;51.220;7.250;2022-10-16T00:43:13;98013.59;;;13.45;100.00
54417;BME280;40326;51.220;7.250;2022-10-16T00:45:39;98016.16;;;13.45;100.00
54417;BME280;40326;51.220;7.250;2022-10-16T00:48:09;98013.59;;;13.45;100.00
54417;BME280;40326;51.220;7.250;2022-10-16T00:50:37;98017.19;;;13.43;100.00
54417;BME280;40326;51.220;7.250;2022-10-16T00:53:04;98013.69;;;13.44;100.00
54417;BME280;40326;51.220;7.250;2022-10-16T00:55:30;98006.81;;;13.31;100.00
54417;BME280;40326;51.220;7.250;2022-10-16T00:57:56;98010.56;;;13.13;100.00
54417;BME280;40326;51.220;7.250;2022-10-16T01:00:24;98028.34;;;13.16;100.00
54417;BME280;40326;51.220;7.250;2022-10-16T01:02:55;98021.88;;;13.11;100.00
54417;BME280;40326;51.220;7.250;2022-10-16T01:05:39;98020.22;;;13.10;100.00
54417;BME280;40326;51.220;7.250;2022-10-16T01:08:13;98011.69;;;12.96;100.00
54417;BME280;40326;51.220;7.250;2022-10-16T01:10:59;98024.75;;;13.06;100.00
54417;BME280;40326;51.220;7.250;2022-10-16T01:13:36;98027.53;;;13.03;100.00
54417;BME280;40326;51.220;7.250;2022-10-16T01:16:08;98036.56;;;13.08;100.00
54417;BME280;40326;51.220;7.250;2022-10-16T01:18:43;98029.78;;;12.95;100.00
54417;BME280;40326;51.220;7.250;2022-10-16T01:21:16;98036.75;;;12.93;100.00
54417;BME280;40326;51.220;7.250;2022-10-16T01:29:25;98037.34;;;12.84;100.00
54417;BME280;40326;51.220;7.250;2022-10-16T01:31:57;98039.63;;;12.88;100.00
54417;BME280;40326;51.220;7.250;2022-10-16T01:34:48;98046.69;;;12.85;100.00
54417;BME280;40326;51.220;7.250;2022-10-16T01:37:21;98042.69;;;12.81;100.00
54417;BME280;40326;51.220;7.250;2022-10-16T01:39:48;98043.16;;;12.73;100.00
54417;BME280;40326;51.220;7.250;2022-10-16T01:42:22;98035.91;;;12.79;100.00
54417;BME280;40326;51.220;7.250;2022-10-16T01:44:51;98043.50;;;12.81;100.00
54417;BME280;40326;51.220;7.250;2022-10-16T01:47:18;98037.16;;;12.87;100.00
54417;BME280;40326;51.220;7.250;2022-10-16T01:49:46;98040.50;;;12.74;100.00
54417;BME280;40326;51.220;7.250;2022-10-16T01:52:20;98041.13;;;12.78;100.00
54417;BME280;40326;51.220;7.250;2022-10-16T01:54:50;98043.66;;;12.65;100.00
54417;BME280;40326;51.220;7.250;2022-10-16T01:57:17;98050.88;;;12.73;100.00
54417;BME280;40326;51.220;7.250;2022-10-16T01:59:48;98040.31;;;12.77;100.00
54417;BME280;40326;51.220;7.250;2022-10-16T02:02:17;98036.28;;;12.73;100.00
54417;BME280;40326;51.220;7.250;2022-10-16T02:04:46;98041.03;;;12.79;100.00
54417;BME280;40326;51.220;7.250;2022-10-16T02:07:14;98045.75;;;12.73;100.00
54417;BME280;40326;51.220;7.250;2022-10-16T02:09:40;98061.59;;;12.79;100.00
54417;BME280;40326;51.220;7.250;2022-10-16T02:12:14;98060.66;;;12.81;100.00
54417;BME280;40326;51.220;7.250;2022-10-16T02:14:41;98060.06;;;12.77;100.00
54417;BME280;40326;51.220;7.250;2022-10-16T02:17:15;98042.88;;;12.77;100.00
54417;BME280;40326;51.220;7.250;2022-10-16T02:19:41;98038.47;;;12.79;100.00
54417;BME280;40326;51.220;7.250;2022-10-16T02:22:10;98035.91;;;12.79;100.00
54417;BME280;40326;51.220;7.250;2022-10-16T02:28:03;98033.81;;;12.72;100.00
54417;BME280;40326;51.220;7.250;2022-10-16T02:30:36;98050.06;;;12.72;100.00
54417;BME280;40326;51.220;7.250;2022-10-16T02:33:07;98045.34;;;12.79;100.00
54417;BME280;40326;51.220;7.250;2022-10-16T02:35:34;98049.47;;;12.82;100.00
54417;BME280;40326;51.220;7.250;2022-10-16T02:38:00;98047.09;;;12.78;100.00
54417;BME280;40326;51.220;7.250;2022-10-16T02:40:27;98043.94;;;12.88;100.00
54417;BME280;40326;51.220;7.250;2022-10-16T02:42:54;98041.50;;;12.99;100.00
54417;BME280;40326;51.220;7.250;2022-10-16T02:45:20;98045.53;;;13.03;100.00
54417;BME280;40326;51.220;7.250;2022-10-16T02:47:46;98042.41;;;12.98;100.00
54417;BME280;40326;51.220;7.250;2022-10-16T02:50:12;98034.63;;;13.12;100.00
54417;BME280;40326;51.220;7.250;2022-10-16T02:52:37;98032.69;;;13.16;100.00
54417;BME280;40326;51.220;7.250;2022-10-16T02:55:02;98036.19;;;13.15;100.00
54417;BME280;40326;51.220;7.250;2022-10-16T02:57:28;98032.97;;;13.11;100.00
54417;BME280;40326;51.220;7.250;2022-10-16T02:59:53;98033.50;;;13.16;100.00
54417;BME280;40326;51.220;7.250;2022-10-16T03:02:19;98026.94;;;13.12;100.00
54417;BME280;40326;51.220;7.250;2022-10-16T03:04:45;98024.50;;;13.23;100.00
54417;BME280;40326;51.220;7.250;2022-10-16T03:07:10;98019.63;;;13.06;100.00
54417;BME280;40326;51.220;7.250;2022-10-16T03:09:35;98019.34;;;13.23;100.00
54417;BME280;40326;51.220;7.250;2022-10-16T03:12:01;98025.06;;;13.14;100.00
54417;BME280;40326;51.220;7.250;2022-10-16T03:14:26;98031.84;;;13.15;100.00
54417;BME280;40326;51.220;7.250;2022-10-16T03:16:51;98026.50;;;13.18;100.00
54417;BME280;40326;51.220;7.250;2022-10-16T03:19:17;98038.28;;;13.22;100.00
54417;BME280;40326;51.220;7.250;2022-10-16T03:21:43;98031.31;;;13.10;100.00
54417;BME280;40326;51.220;7.250;2022-10-16T03:24:09;98021.97;;;13.09;100.00
54417;BME280;40326;51.220;7.250;2022-10-16T03:26:34;98015.19;;;12.95;100.00
54417;BME280;40326;51.220;7.250;2022-10-16T03:28:59;98004.47;;;12.89;100.00
54417;BME280;40326;51.220;7.250;2022-10-16T03:31:25;98010.03;;;12.95;100.00
54417;BME280;40326;51.220;7.250;2022-10-16T03:33:50;97995.63;;;12.93;100.00
54417;BME280;40326;51.220;7.250;2022-10-16T03:36:15;98003.53;;;12.77;100.00
54417;BME280;40326;51.220;7.250;2022-10-16T03:38:41;98021.75;;;12.87;100.00
54417;BME280;40326;51.220;7.250;2022-10-16T03:41:06;98014.97;;;12.86;100.00
54417;BME280;40326;51.220;7.250;2022-10-16T03:43:32;98017.53;;;12.86;100.00
54417;BME280;40326;51.220;7.250;2022-10-16T03:46:00;98046.19;;;12.79;100.00
54417;BME280;40326;51.220;7.250;2022-10-16T03:48:26;98038.00;;;13.00;100.00
54417;BME280;40326;51.220;7.250;2022-10-16T03:50:51;98025.03;;;13.01;100.00
54417;BME280;40326;51.220;7.250;2022-10-16T03:53:16;98031.31;;;13.10;100.00
54417;BME280;40326;51.220;7.250;2022-10-16T03:55:43;98012.69;;;12.94;100.00
54417;BME280;40326;51.220;7.250;2022-10-16T03:58:08;98003.78;;;13.12;100.00
54417;BME280;40326;51.220;7.250;2022-10-16T04:00:34;98014.16;;;12.98;100.00
54417;BME280;40326;51.220;7.250;2022-10-16T04:03:00;98019.06;;;13.01;100.00
54417;BME280;40326;51.220;7.250;2022-10-16T04:05:28;98015.69;;;12.88;100.00
54417;BME280;40326;51.220;7.250;2022-10-16T04:07:53;98034.06;;;12.82;100.00
54417;BME280;40326;51.220;7.250;2022-10-16T04:10:18;98044.53;;;12.78;100.00
54417;BME280;40326;51.220;7.250;2022-10-16T04:12:44;98044.13;;;12.85;100.00
54417;BME280;40326;51.220;7.250;2022-10-16T04:15:10;98044.31;;;12.82;100.00
54417;BME280;40326;51.220;7.250;2022-10-16T04:17:35;98055.16;;;12.87;100.00
54417;BME280;40326;51.220;7.250;2022-10-16T04:20:01;98053.34;;;12.74;100.00
54417;BME280;40326;51.220;7.250;2022-10-16T04:22:26;98051.69;;;12.73;100.00
54417;BME280;40326;51.220;7.250;2022-10-16T04:24:51;98066.94;;;12.76;100.00
54417;BME280;40326;51.220;7.250;2022-10-16T04:27:17;98076.63;;;12.86;100.00
54417;BME280;40326;51.220;7.250;2022-10-16T04:29:42;98077.81;;;12.80;100.00
54417;BME280;40326;51.220;7.250;2022-10-16T04:32:08;98081.41;;;12.77;100.00
54417;BME280;40326;51.220;7.250;2022-10-16T04:34:34;98076.28;;;12.77;100.00
54417;BME280;40326;51.220;7.250;2022-10-16T04:37:00;98084.00;;;12.77;100.00
54417;BME280;40326;51.220;7.250;2022-10-16T04:39:25;98081.94;;;12.83;100.00
54417;BME280;40326;51.220;7.250;2022-10-16T04:41:50;98099.00;;;12.84;100.00
54417;BME280;40326;51.220;7.250;2022-10-16T04:44:15;98093.78;;;12.85;100.00
54417;BME280;40326;51.220;7.250;2022-10-16T04:46:41;98093.69;;;12.87;100.00
54417;BME280;40326;51.220;7.250;2022-10-16T04:49:06;98098.06;;;12.85;100.00
54417;BME280;40326;51.220;7.250;2022-10-16T04:51:31;98097.19;;;12.86;100.00
54417;BME280;40326;51.220;7.250;2022-10-16T04:53:57;98097.19;;;12.86;100.00
54417;BME280;40326;51.220;7.250;2022-10-16T04:56:22;98092.63;;;12.76;100.00
54417;BME280;40326;51.220;7.250;2022-10-16T04:58:48;98088.94;;;12.81;100.00
54417;BME280;40326;51.220;7.250;2022-10-16T05:01:13;98098.91;;;12.58;100.00
54417;BME280;40326;51.220;7.250;2022-10-16T05:03:39;98100.38;;;12.62;100.00
54417;BME280;40326;51.220;7.250;2022-10-16T05:06:05;98117.63;;;12.60;100.00
54417;BME280;40326;51.220;7.250;2022-10-16T05:08:31;98127.25;;;12.57;100.00
54417;BME280;40326;51.220;7.250;2022-10-16T05:10:56;98121.19;;;12.58;100.00
54417;BME280;40326;51.220;7.250;2022-10-16T05:13:21;98116.44;;;12.52;100.00
54417;BME280;40326;51.220;7.250;2022-10-16T05:15:48;98100.97;;;12.39;100.00
54417;BME280;40326;51.220;7.250;2022-10-16T05:18:14;98112.59;;;12.44;100.00
54417;BME280;40326;51.220;7.250;2022-10-16T05:20:40;98125.91;;;12.37;100.00
54417;BME280;40326;51.220;7.250;2022-10-16T05:23:05;98151.78;;;12.34;100.00
54417;BME280;40326;51.220;7.250;2022-10-16T05:25:31;98155.63;;;12.41;100.00
54417;BME280;40326;51.220;7.250;2022-10-16T05:27:56;98143.34;;;12.32;100.00
54417;BME280;40326;51.220;7.250;2022-10-16T05:30:21;98141.66;;;12.31;100.00
54417;BME280;40326;51.220;7.250;2022-10-16T05:32:48;98143.16;;;12.35;100.00
54417;BME280;40326;51.220;7.250;2022-10-16T05:35:14;98153.41;;;12.35;100.00
54417;BME280;40326;51.220;7.250;2022-10-16T05:37:40;98164.78;;;12.45;100.00
54417;BME280;40326;51.220;7.250;2022-10-16T05:40:05;98162.03;;;12.34;100.00
54417;BME280;40326;51.220;7.250;2022-10-16T05:42:31;98171.38;;;12.35;100.00
54417;BME280;40326;51.220;7.250;2022-10-16T05:44:56;98166.78;;;12.40;100.00
54417;BME280;40326;51.220;7.250;2022-10-16T05:47:22;98162.22;;;12.45;100.00
54417;BME280;40326;51.220;7.250;2022-10-16T05:49:47;98155.31;;;12.45;100.00
54417;BME280;40326;51.220;7.250;2022-10-16T05:52:12;98164.22;;;12.40;100.00
54417;BME280;40326;51.220;7.250;2022-10-16T05:54:38;98171.19;;;12.38;100.00
54417;BME280;40326;51.220;7.250;2022-10-16T05:57:03;98181.00;;;12.45;100.00
54417;BME280;40326;51.220;7.250;2022-10-16T05:59:30;98195.94;;;12.53;100.00
54417;BME280;40326;51.220;7.250;2022-10-16T06:01:56;98190.91;;;12.52;100.00
54417;BME280;40326;51.220;7.250;2022-10-16T06:04:21;98181.47;;;12.52;100.00
54417;BME280;40326;51.220;7.250;2022-10-16T06:06:46;98187.88;;;12.59;100.00
54417;BME280;40326;51.220;7.250;2022-10-16T06:09:12;98191.91;;;12.63;100.00
54417;BME280;40326;51.220;7.250;2022-10-16T06:11:37;98195.28;;;12.64;100.00
54417;BME280;40326;51.220;7.250;2022-10-16T06:14:02;98190.16;;;12.64;100.00
54417;BME280;40326;51.220;7.250;2022-10-16T06:16:35;98194.81;;;12.71;100.00
54417;BME280;40326;51.220;7.250;2022-10-16T06:19:00;98200.38;;;12.92;100.00
54417;BME280;40326;51.220;7.250;2022-10-16T06:21:27;98211.22;;;12.83;100.00
54417;BME280;40326;51.220;7.250;2022-10-16T06:23:54;98223.13;;;12.98;100.00
54417;BME280;40326;51.220;7.250;2022-10-16T06:26:21;98214.13;;;13.05;100.00
54417;BME280;40326;51.220;7.250;2022-10-16T06:28:48;98204.19;;;13.14;100.00
54417;BME280;40326;51.220;7.250;2022-10-16T06:31:14;98204.56;;;13.07;100.00
54417;BME280;40326;51.220;7.250;2022-10-16T06:33:40;98202.81;;;13.08;100.00
54417;BME280;40326;51.220;7.250;2022-10-16T06:36:06;98208.78;;;13.35;100.00
54417;BME280;40326;51.220;7.250;2022-10-16T06:38:34;98205.28;;;13.24;100.00
54417;BME280;40326;51.220;7.250;2022-10-16T06:40:59;98211.13;;;13.26;100.00
54417;BME280;40326;51.220;7.250;2022-10-16T06:43:26;98204.72;;;13.46;100.00
54417;BME280;40326;51.220;7.250;2022-10-16T06:45:56;98202.63;;;13.38;100.00
54417;BME280;40326;51.220;7.250;2022-10-16T06:48:22;98209.63;;;13.36;100.00
54417;BME280;40326;51.220;7.250;2022-10-16T06:51:01;98199.72;;;13.82;100.00
54417;BME280;40326;51.220;7.250;2022-10-16T06:53:29;98191.19;;;13.82;100.00
54417;BME280;40326;51.220;7.250;2022-10-16T06:55:55;98209.34;;;14.06;100.00
54417;BME280;40326;51.220;7.250;2022-10-16T06:58:21;98214.19;;;14.23;100.00
54417;BME280;40326;51.220;7.250;2022-10-16T07:00:47;98211.69;;;14.09;100.00
54417;BME280;40326;51.220;7.250;2022-10-16T07:03:13;98211.50;;;14.12;100.00
54417;BME280;40326;51.220;7.250;2022-10-16T07:05:40;98220.03;;;14.25;100.00
54417;BME280;40326;51.220;7.250;2022-10-16T07:08:06;98213.66;;;14.31;100.00
54417;BME280;40326;51.220;7.250;2022-10-16T07:10:32;98214.91;;;14.51;100.00
54417;BME280;40326;51.220;7.250;2022-10-16T07:12:57;98218.81;;;14.56;100.00
54417;BME280;40326;51.220;7.250;2022-10-16T07:15:24;98217.16;;;14.68;100.00
54417;BME280;40326;51.220;7.250;2022-10-16T07:17:49;98216.78;;;14.85;100.00
54417;BME280;40326;51.220;7.250;2022-10-16T07:20:15;98227.41;;;14.81;100.00
54417;BME280;40326;51.220;7.250;2022-10-16T07:22:40;98231.81;;;14.91;100.00
54417;BME280;40326;51.220;7.250;2022-10-16T07:25:06;98236.06;;;14.80;100.00
54417;BME280;40326;51.220;7.250;2022-10-16T07:27:31;98235.97;;;14.81;100.00
54417;BME280;40326;51.220;7.250;2022-10-16T07:29:57;98238.56;;;14.43;100.00
54417;BME280;40326;51.220;7.250;2022-10-16T07:32:22;98246.63;;;14.64;100.00
54417;BME280;40326;51.220;7.250;2022-10-16T07:34:47;98258.97;;;14.84;100.00
54417;BME280;40326;51.220;7.250;2022-10-16T07:37:12;98262.56;;;14.43;100.00
54417;BME280;40326;51.220;7.250;2022-10-16T07:39:38;98269.59;;;14.41;100.00
54417;BME280;40326;51.220;7.250;2022-10-16T07:42:03;98278.94;;;14.17;100.00
54417;BME280;40326;51.220;7.250;2022-10-16T07:44:28;98279.78;;;14.05;100.00
54417;BME280;40326;51.220;7.250;2022-10-16T07:46:54;98288.44;;;14.16;100.00
54417;BME280;40326;51.220;7.250;2022-10-16T07:49:19;98288.47;;;14.55;100.00
54417;BME280;40326;51.220;7.250;2022-10-16T07:51:45;98287.25;;;14.47;100.00
54417;BME280;40326;51.220;7.250;2022-10-16T07:54:10;98282.44;;;14.29;100.00
54417;BME280;40326;51.220;7.250;2022-10-16T07:56:36;98281.03;;;14.25;100.00
54417;BME280;40326;51.220;7.250;2022-10-16T07:59:01;98289.47;;;14.14;100.00
54417;BME280;40326;51.220;7.250;2022-10-16T08:01:26;98292.56;;;14.44;100.00
54417;BME280;40326;51.220;7.250;2022-10-16T08:03:52;98294.66;;;14.65;100.00
54417;BME280;40326;51.220;7.250;2022-10-16T08:06:19;98292.38;;;14.73;100.00
54417;BME280;40326;51.220;7.250;2022-10-16T08:08:45;98296.78;;;15.33;100.00
54417;BME280;40326;51.220;7.250;2022-10-16T08:11:10;98287.94;;;15.24;100.00
54417;BME280;40326;51.220;7.250;2022-10-16T08:13:36;98290.66;;;15.47;100.00
54417;BME280;40326;51.220;7.250;2022-10-16T08:16:01;98283.84;;;15.46;100.00
54417;BME280;40326;51.220;7.250;2022-10-16T08:18:28;98282.59;;;15.75;100.00
54417;BME280;40326;51.220;7.250;2022-10-16T08:20:58;98275.84;;;15.97;100.00
54417;BME280;40326;51.220;7.250;2022-10-16T08:23:25;98285.50;;;15.71;100.00
54417;BME280;40326;51.220;7.250;2022-10-16T08:25:52;98286.03;;;15.87;100.00
54417;BME280;40326;51.220;7.250;2022-10-16T08:28:18;98290.97;;;15.90;100.00
54417;BME280;40326;51.220;7.250;2022-10-16T08:30:43;98285.13;;;15.99;100.00
54417;BME280;40326;51.220;7.250;2022-10-16T08:33:09;98292.94;;;16.10;100.00
54417;BME280;40326;51.220;7.250;2022-10-16T08:35:34;98284.66;;;16.40;100.00
54417;BME280;40326;51.220;7.250;2022-10-16T08:37:59;98278.41;;;16.43;100.00
54417;BME280;40326;51.220;7.250;2022-10-16T08:40:27;98287.88;;;16.09;100.00
54417;BME280;40326;51.220;7.250;2022-10-16T08:45:49;98295.41;;;16.23;100.00
54417;BME280;40326;51.220;7.250;2022-10-16T08:51:03;98302.09;;;16.14;100.00
54417;BME280;40326;51.220;7.250;2022-10-16T08:53:54;98294.59;;;16.34;100.00
54417;BME280;40326;51.220;7.250;2022-10-16T08:56:20;98299.84;;;16.79;100.00
54417;BME280;40326;51.220;7.250;2022-10-16T08:58:46;98297.44;;;16.53;100.00
54417;BME280;40326;51.220;7.250;2022-10-16T09:01:15;98297.63;;;16.85;100.00
54417;BME280;40326;51.220;7.250;2022-10-16T09:04:18;98293.47;;;16.49;100.00
54417;BME280;40326;51.220;7.250;2022-10-16T09:15:32;98313.44;;;16.58;100.00
54417;BME280;40326;51.220;7.250;2022-10-16T09:20:53;98315.13;;;16.93;100.00
54417;BME280;40326;51.220;7.250;2022-10-16T09:23:30;98306.19;;;17.08;100.00
54417;BME280;40326;51.220;7.250;2022-10-16T09:25:58;98311.13;;;17.11;100.00
54417;BME280;40326;51.220;7.250;2022-10-16T09:28:24;98304.75;;;17.26;100.00
54417;BME280;40326;51.220;7.250;2022-10-16T09:30:49;98314.88;;;17.29;100.00
54417;BME280;40326;51.220;7.250;2022-10-16T09:33:18;98304.78;;;17.04;100.00
54417;BME280;40326;51.220;7.250;2022-10-16T09:35:46;98308.41;;;17.35;100.00
54417;BME280;40326;51.220;7.250;2022-10-16T09:38:29;98300.28;;;17.28;100.00
54417;BME280;40326;51.220;7.250;2022-10-16T09:40:57;98303.63;;;17.51;100.00
54417;BME280;40326;51.220;7.250;2022-10-16T09:46:06;98308.53;;;17.11;100.00
54417;BME280;40326;51.220;7.250;2022-10-16T09:48:43;98312.59;;;17.47;100.00
54417;BME280;40326;51.220;7.250;2022-10-16T09:51:31;98315.41;;;17.55;100.00
54417;BME280;40326;51.220;7.250;2022-10-16T09:56:26;98306.63;;;17.24;100.00
54417;BME280;40326;51.220;7.250;2022-10-16T09:58:54;98304.34;;;17.42;100.00
54417;BME280;40326;51.220;7.250;2022-10-16T10:01:21;98305.13;;;17.11;100.00
54417;BME280;40326;51.220;7.250;2022-10-16T10:03:48;98314.09;;;17.50;100.00
54417;BME280;40326;51.220;7.250;2022-10-16T10:06:25;98306.31;;;17.61;100.00
54417;BME280;40326;51.220;7.250;2022-10-16T10:08:54;98317.41;;;17.41;100.00
54417;BME280;40326;51.220;7.250;2022-10-16T10:11:49;98316.28;;;17.22;100.00
54417;BME280;40326;51.220;7.250;2022-10-16T10:19:30;98326.41;;;17.14;100.00
54417;BME280;40326;51.220;7.250;2022-10-16T10:22:15;98315.84;;;17.60;100.00
54417;BME280;40326;51.220;7.250;2022-10-16T10:24:42;98312.81;;;17.99;100.00
54417;BME280;40326;51.220;7.250;2022-10-16T10:27:15;98316.88;;;17.69;100.00
54417;BME280;40326;51.220;7.250;2022-10-16T10:42:40;98310.94;;;17.46;100.00
54417;BME280;40326;51.220;7.250;2022-10-16T10:45:26;98312.44;;;17.60;100.00
54417;BME280;40326;51.220;7.250;2022-10-16T10:48:25;98317.38;;;17.95;100.00
54417;BME280;40326;51.220;7.250;2022-10-16T10:51:07;98319.22;;;17.83;100.00
54417;BME280;40326;51.220;7.250;2022-10-16T10:56:34;98317.69;;;18.85;100.00
54417;BME280;40326;51.220;7.250;2022-10-16T11:07:15;98320.63;;;19.02;100.00
54417;BME280;40326;51.220;7.250;2022-10-16T11:09:52;98322.91;;;19.35;100.00
54417;BME280;40326;51.220;7.250;2022-10-16T11:12:23;98333.63;;;19.11;100.00
54417;BME280;40326;51.220;7.250;2022-10-16T11:18:16;98326.03;;;18.17;100.00
54417;BME280;40326;51.220;7.250;2022-10-16T11:20:57;98331.44;;;18.13;100.00
54417;BME280;40326;51.220;7.250;2022-10-16T11:26:33;98335.34;;;18.50;100.00
54417;BME280;40326;51.220;7.250;2022-10-16T11:29:02;98338.47;;;18.23;100.00
54417;BME280;40326;51.220;7.250;2022-10-16T11:31:38;98335.16;;;18.41;100.00
54417;BME280;40326;51.220;7.250;2022-10-16T11:34:12;98332.84;;;18.18;100.00
54417;BME280;40326;51.220;7.250;2022-10-16T11:36:44;98334.22;;;18.84;100.00
54417;BME280;40326;51.220;7.250;2022-10-16T11:39:31;98328.84;;;19.07;100.00
54417;BME280;40326;51.220;7.250;2022-10-16T11:49:58;98334.56;;;17.96;100.00
54417;BME280;40326;51.220;7.250;2022-10-16T11:52:36;98340.00;;;18.25;100.00
54417;BME280;40326;51.220;7.250;2022-10-16T11:57:38;98331.75;;;18.20;100.00
54417;BME280;40326;51.220;7.250;2022-10-16T12:00:21;98345.22;;;18.56;100.00
54417;BME280;40326;51.220;7.250;2022-10-16T12:02:50;98337.91;;;18.19;100.00
54417;BME280;40326;51.220;7.250;2022-10-16T12:06:06;98346.50;;;18.20;100.00
54417;BME280;40326;51.220;7.250;2022-10-16T12:08:36;98342.09;;;19.53;100.00
54417;BME280;40326;51.220;7.250;2022-10-16T12:19:19;98356.31;;;18.79;100.00
54417;BME280;40326;51.220;7.250;2022-10-16T12:21:45;98353.50;;;18.91;100.00
54417;BME280;40326;51.220;7.250;2022-10-16T12:24:35;98350.88;;;18.61;100.00
54417;BME280;40326;51.220;7.250;2022-10-16T12:27:02;98357.56;;;18.84;100.00
54417;BME280;40326;51.220;7.250;2022-10-16T12:29:41;98356.97;;;18.71;100.00
54417;BME280;40326;51.220;7.250;2022-10-16T12:32:32;98348.56;;;18.88;100.00
54417;BME280;40326;51.220;7.250;2022-10-16T12:34:59;98357.78;;;19.02;100.00
54417;BME280;40326;51.220;7.250;2022-10-16T12:37:32;98350.31;;;19.18;100.00
54417;BME280;40326;51.220;7.250;2022-10-16T12:39:59;98349.50;;;19.18;100.00
54417;BME280;40326;51.220;7.250;2022-10-16T12:42:36;98355.44;;;19.39;100.00
54417;BME280;40326;51.220;7.250;2022-10-16T12:45:01;98351.94;;;19.10;100.00
54417;BME280;40326;51.220;7.250;2022-10-16T12:47:48;98347.84;;;19.07;100.00
54417;BME280;40326;51.220;7.250;2022-10-16T12:50:24;98353.22;;;18.94;100.00
54417;BME280;40326;51.220;7.250;2022-10-16T12:52:50;98352.41;;;18.42;100.00
54417;BME280;40326;51.220;7.250;2022-10-16T12:55:18;98356.44;;;18.35;100.00
54417;BME280;40326;51.220;7.250;2022-10-16T13:00:53;98356.34;;;19.19;100.00
54417;BME280;40326;51.220;7.250;2022-10-16T13:06:33;98349.91;;;19.23;100.00
54417;BME280;40326;51.220;7.250;2022-10-16T13:20:03;98351.44;;;18.95;100.00
54417;BME280;40326;51.220;7.250;2022-10-16T13:26:00;98350.22;;;19.70;100.00
54417;BME280;40326;51.220;7.250;2022-10-16T13:28:33;98345.84;;;19.70;100.00
54417;BME280;40326;51.220;7.250;2022-10-16T13:31:01;98347.72;;;19.59;100.00
54417;BME280;40326;51.220;7.250;2022-10-16T13:33:33;98357.06;;;19.40;100.00
54417;BME280;40326;51.220;7.250;2022-10-16T13:36:00;98363.63;;;19.35;100.00
54417;BME280;40326;51.220;7.250;2022-10-16T13:38:36;98365.03;;;19.48;100.00
54417;BME280;40326;51.220;7.250;2022-10-16T13:41:06;98374.53;;;19.59;100.00
54417;BME280;40326;51.220;7.250;2022-10-16T13:43:43;98373.69;;;19.59;100.00
54417;BME280;40326;51.220;7.250;2022-10-16T13:46:23;98375.38;;;19.79;100.00
54417;BME280;40326;51.220;7.250;2022-10-16T13:49:00;98373.03;;;19.85;100.00
54417;BME280;40326;51.220;7.250;2022-10-16T13:51:27;98362.94;;;19.33;100.00
54417;BME280;40326;51.220;7.250;2022-10-16T13:53:54;98360.41;;;19.12;100.00
54417;BME280;40326;51.220;7.250;2022-10-16T13:56:22;98362.13;;;19.02;100.00
54417;BME280;40326;51.220;7.250;2022-10-16T13:59:02;98356.34;;;19.19;100.00
54417;BME280;40326;51.220;7.250;2022-10-16T14:01:33;98356.31;;;19.09;100.00
54417;BME280;40326;51.220;7.250;2022-10-16T14:04:04;98357.03;;;19.21;100.00
54417;BME280;40326;51.220;7.250;2022-10-16T14:06:31;98356.56;;;19.46;100.00
54417;BME280;40326;51.220;7.250;2022-10-16T14:09:06;98365.38;;;19.65;100.00
54417;BME280;40326;51.220;7.250;2022-10-16T14:11:33;98365.13;;;19.87;100.00
54417;BME280;40326;51.220;7.250;2022-10-16T14:14:01;98362.25;;;19.90;100.00
54417;BME280;40326;51.220;7.250;2022-10-16T14:16:30;98358.16;;;20.17;100.00
54417;BME280;40326;51.220;7.250;2022-10-16T14:19:04;98358.56;;;20.02;100.00
54417;BME280;40326;51.220;7.250;2022-10-16T14:21:32;98363.44;;;19.57;100.00
54417;BME280;40326;51.220;7.250;2022-10-16T14:23:57;98378.56;;;19.12;100.00
54417;BME280;40326;51.220;7.250;2022-10-16T14:26:26;98385.09;;;18.76;100.00
54417;BME280;40326;51.220;7.250;2022-10-16T14:29:14;98379.66;;;19.09;100.00
54417;BME280;40326;51.220;7.250;2022-10-16T14:31:40;98377.28;;;18.96;100.00
54417;BME280;40326;51.220;7.250;2022-10-16T14:36:55;98380.03;;;19.05;100.00
54417;BME280;40326;51.220;7.250;2022-10-16T14:39:22;98375.81;;;19.04;100.00
54417;BME280;40326;51.220;7.250;2022-10-16T14:41:50;98371.69;;;18.70;100.00
54417;BME280;40326;51.220;7.250;2022-10-16T14:44:27;98363.50;;;18.75;100.00
54417;BME280;40326;51.220;7.250;2022-10-16T14:46:53;98366.47;;;18.50;100.00
54417;BME280;40326;51.220;7.250;2022-10-16T14:49:20;98369.06;;;18.29;100.00